Time;durP1;ratioP1;P1;durP2;ratioP2;P2;SDS_P1;SDS_P2;PMS_P1;PMS_P2;Temp;Humidity;BMP_temperature;BMP_pressure;BME280_temperature;BME280_humidity;BME280_pressure;Samples;Min_cycle;Max_cycle;Signal;HPM_P1;HPM_P2
2024/02/03 00:02:50;;;;;;;8.90;3.38;;;;;;;10.27;65.13;101513.31;10384938;28;20045;-64
2024/02/03 00:07:51;;;;;;;6.63;4.03;;;;;;;10.29;65.17;101518.53;10391349;28;20249;-61
2024/02/03 00:12:53;;;;;;;6.38;3.40;;;;;;;10.36;65.04;101514.28;10387912;28;20172;-61
2024/02/03 00:17:54;;;;;;;10.60;4.68;;;;;;;10.34;65.12;101510.06;10383110;28;20053;-61
2024/02/03 00:22:56;;;;;;;8.27;3.72;;;;;;;10.34;65.24;101504.69;10383783;28;20045;-61
2024/02/03 00:27:57;;;;;;;9.00;4.13;;;;;;;10.31;64.99;101508.53;10381820;28;20046;-61
2024/02/03 00:32:59;;;;;;;8.10;3.70;;;;;;;10.28;65.38;101514.16;10383811;28;20667;-61
2024/02/03 00:38:00;;;;;;;8.55;3.38;;;;;;;10.33;65.24;101509.22;10380472;28;20060;-61
2024/02/03 00:43:02;;;;;;;9.30;4.90;;;;;;;10.37;65.04;101507.94;10380897;28;20038;-61
2024/02/03 00:48:04;;;;;;;8.88;4.88;;;;;;;10.30;65.14;101520.25;10377999;28;20053;-60
2024/02/03 00:53:06;;;;;;;10.98;4.45;;;;;;;10.35;65.16;101520.69;10383255;28;20691;-60
2024/02/03 00:58:08;;;;;;;11.02;4.53;;;;;;;10.36;65.30;101519.66;10381225;28;20052;-62
2024/02/03 01:03:10;;;;;;;9.23;4.60;;;;;;;10.41;64.95;101530.00;10365850;28;20061;-62
2024/02/03 01:08:11;;;;;;;10.35;5.07;;;;;;;10.44;64.87;101521.63;10381636;28;20042;-61
2024/02/03 01:13:13;;;;;;;8.82;4.68;;;;;;;10.43;64.97;101515.41;10381448;28;20140;-60
2024/02/03 01:18:15;;;;;;;8.77;4.35;;;;;;;10.42;64.74;101508.34;10380109;28;20054;-63
2024/02/03 01:23:17;;;;;;;8.20;4.53;;;;;;;10.34;65.24;101513.59;10379823;28;20053;-63
2024/02/03 01:28:19;;;;;;;8.73;4.53;;;;;;;10.39;64.88;101518.56;10386039;28;20141;-63
2024/02/03 01:33:20;;;;;;;7.97;3.85;;;;;;;10.35;65.49;101530.56;10382619;28;20107;-63
2024/02/03 01:38:22;;;;;;;11.77;4.50;;;;;;;10.29;65.53;101532.81;10379412;28;20045;-64
2024/02/03 01:43:24;;;;;;;8.90;4.20;;;;;;;10.13;65.49;101533.41;10381245;28;20042;-64
2024/02/03 01:48:26;;;;;;;8.77;4.03;;;;;;;10.13;65.62;101533.41;10375982;28;20146;-65
2024/02/03 01:53:28;;;;;;;9.45;4.28;;;;;;;10.20;65.67;101524.78;10378556;28;20057;-63
2024/02/03 01:58:30;;;;;;;8.63;3.95;;;;;;;10.17;65.26;101519.69;10379323;28;20064;-64
2024/02/03 02:03:32;;;;;;;9.38;4.00;;;;;;;10.10;65.70;101522.09;10382724;28;20052;-63
2024/02/03 02:08:36;;;;;;;10.10;4.75;;;;;;;10.12;65.46;101529.03;10377868;28;21516;-65
2024/02/03 02:13:37;;;;;;;7.70;3.78;;;;;;;10.06;66.20;101524.22;10376625;28;20437;-63
2024/02/03 02:18:39;;;;;;;8.65;3.70;;;;;;;10.08;66.18;101522.25;10363455;28;20049;-63
2024/02/03 02:23:41;;;;;;;9.90;4.43;;;;;;;10.09;65.90;101528.47;10374627;28;20060;-63
2024/02/03 02:28:42;;;;;;;6.25;3.17;;;;;;;10.07;65.98;101533.13;10380845;28;20059;-61
2024/02/03 02:33:43;;;;;;;7.03;4.18;;;;;;;10.04;66.30;101530.75;10376172;28;20069;-61
2024/02/03 02:38:45;;;;;;;7.95;3.72;;;;;;;10.04;66.15;101515.47;10356066;28;20053;-61
2024/02/03 02:43:46;;;;;;;10.23;3.85;;;;;;;10.03;66.30;101529.91;10381054;28;20129;-61
2024/02/03 02:48:48;;;;;;;9.48;3.58;;;;;;;10.05;66.28;101525.22;10378404;28;20140;-61
2024/02/03 02:53:49;;;;;;;8.93;3.38;;;;;;;10.09;66.37;101517.72;10373635;28;20136;-61
2024/02/03 02:58:51;;;;;;;6.72;3.85;;;;;;;9.96;66.50;101519.88;10375615;28;20050;-61
2024/02/03 03:03:54;;;;;;;7.28;3.72;;;;;;;9.93;66.97;101519.16;10361495;28;20041;-61
2024/02/03 03:08:55;;;;;;;9.05;4.13;;;;;;;9.85;67.09;101524.41;10380266;28;22398;-61
2024/02/03 03:13:58;;;;;;;8.63;3.67;;;;;;;9.79;67.72;101518.75;10379124;28;20077;-61
2024/02/03 03:19:01;;;;;;;7.28;2.97;;;;;;;9.73;67.59;101522.84;10330965;28;20045;-61
2024/02/03 03:24:05;;;;;;;6.25;3.45;;;;;;;9.70;67.62;101529.34;10362100;28;20049;-61
2024/02/03 03:29:07;;;;;;;7.63;3.08;;;;;;;9.67;68.13;101513.50;10375194;28;20451;-61
2024/02/03 03:34:09;;;;;;;8.15;3.65;;;;;;;9.61;68.49;101513.22;10371620;28;20049;-61
2024/02/03 03:39:11;;;;;;;10.65;3.78;;;;;;;9.57;68.66;101503.78;10388169;28;20061;-63
2024/02/03 03:44:12;;;;;;;8.30;3.97;;;;;;;9.48;68.92;101509.00;10367216;28;20041;-63
2024/02/03 03:49:14;;;;;;;9.18;3.83;;;;;;;9.44;69.07;101496.84;10382034;28;20057;-64
2024/02/03 03:54:15;;;;;;;7.60;3.00;;;;;;;9.39;69.49;101501.78;10379046;28;20048;-64
2024/02/03 03:59:17;;;;;;;6.55;3.03;;;;;;;9.37;69.76;101502.91;10381219;28;20049;-64
2024/02/03 04:04:18;;;;;;;7.45;3.17;;;;;;;9.37;69.77;101509.13;10382795;28;20052;-64
2024/02/03 04:09:20;;;;;;;7.05;3.15;;;;;;;9.45;69.65;101508.41;10384121;28;20041;-65
2024/02/03 04:14:21;;;;;;;6.65;2.85;;;;;;;9.42;70.10;101516.75;10380017;28;20046;-63
2024/02/03 04:19:23;;;;;;;7.05;2.63;;;;;;;9.43;70.30;101521.13;10345720;28;1017202;-63
2024/02/03 04:24:25;;;;;;;5.75;2.60;;;;;;;9.53;70.06;101522.81;10379740;28;20594;-64
2024/02/03 04:29:26;;;;;;;5.45;2.45;;;;;;;9.55;70.24;101517.31;10372588;28;20048;-65
2024/02/03 04:34:28;;;;;;;5.15;2.55;;;;;;;9.57;70.32;101512.66;10383743;28;20038;-64
2024/02/03 04:39:29;;;;;;;5.38;2.22;;;;;;;9.56;70.44;101512.78;10384296;28;20049;-64
2024/02/03 04:44:31;;;;;;;5.78;2.17;;;;;;;9.59;70.28;101496.41;10388219;28;20540;-63
2024/02/03 04:49:32;;;;;;;4.13;2.33;;;;;;;9.59;70.16;101491.88;10382439;28;20063;-63
2024/02/03 04:54:34;;;;;;;5.50;2.10;;;;;;;9.70;69.81;101485.53;10381585;28;20046;-65
2024/02/03 04:59:36;;;;;;;5.20;2.33;;;;;;;9.68;69.92;101485.69;10381478;28;20050;-64
2024/02/03 05:04:37;;;;;;;5.13;2.65;;;;;;;9.66;70.08;101481.44;10373683;28;20041;-64
2024/02/03 05:09:39;;;;;;;6.93;2.85;;;;;;;9.59;70.27;101478.47;10362246;28;20041;-64
2024/02/03 05:14:40;;;;;;;5.65;2.75;;;;;;;9.64;70.16;101492.31;10381185;28;20100;-63
2024/02/03 05:19:42;;;;;;;5.18;2.85;;;;;;;9.64;70.08;101486.13;10380888;28;20093;-63
2024/02/03 05:24:43;;;;;;;6.20;2.58;;;;;;;9.58;70.11;101471.41;10377199;28;20038;-62
2024/02/03 05:29:45;;;;;;;8.98;3.63;;;;;;;9.56;70.36;101477.91;10381802;28;20058;-63
2024/02/03 05:34:46;;;;;;;8.00;2.92;;;;;;;9.52;70.35;101463.94;10367844;28;20136;-63
2024/02/03 05:39:48;;;;;;;6.75;3.17;;;;;;;9.48;70.44;101452.63;10383357;28;20069;-63
2024/02/03 05:44:50;;;;;;;3.17;2.00;;;;;;;9.44;70.59;101469.13;10366281;28;20049;-63
2024/02/03 05:49:52;;;;;;;5.40;2.50;;;;;;;9.45;70.69;101470.84;10380577;28;20052;-63
2024/02/03 05:54:54;;;;;;;4.20;2.00;;;;;;;9.50;70.50;101461.38;10378126;28;20060;-63
2024/02/03 05:59:56;;;;;;;3.20;1.50;;;;;;;9.51;70.60;101470.28;10378044;28;20764;-62
2024/02/03 06:04:57;;;;;;;4.68;1.83;;;;;;;9.51;70.68;101472.97;10381580;28;20048;-63
2024/02/03 06:10:00;;;;;;;2.97;1.63;;;;;;;9.62;70.53;101474.69;10378388;28;20136;-62
2024/02/03 06:15:02;;;;;;;4.80;1.98;;;;;;;9.70;70.31;101474.81;10384739;28;20069;-63
2024/02/03 06:20:05;;;;;;;2.42;1.20;;;;;;;9.68;70.29;101474.09;10380052;28;20133;-63
2024/02/03 06:25:07;;;;;;;1.90;1.13;;;;;;;9.69;70.31;101465.88;10381374;28;20129;-63
2024/02/03 06:30:09;;;;;;;1.88;0.73;;;;;;;9.68;70.18;101469.56;10378227;28;20065;-64
2024/02/03 06:35:10;;;;;;;1.55;0.60;;;;;;;9.61;70.32;101467.59;10372695;28;20573;-63
2024/02/03 06:40:12;;;;;;;0.85;0.50;;;;;;;9.59;70.35;101465.03;10380103;28;20408;-64
2024/02/03 06:45:13;;;;;;;2.25;0.50;;;;;;;9.57;70.54;101452.75;10376713;28;20050;-63
2024/02/03 06:50:15;;;;;;;1.00;0.50;;;;;;;9.56;70.55;101443.88;10378381;28;20347;-63
2024/02/03 06:55:16;;;;;;;1.02;0.63;;;;;;;9.58;70.61;101444.56;10383923;28;20052;-70
2024/02/03 07:00:18;;;;;;;1.10;0.65;;;;;;;9.65;70.63;101444.84;10414527;23;20045;-91
2024/02/03 07:05:20;;;;;;;1.88;0.82;;;;;;;9.71;70.52;101450.47;10401852;28;20046;-87
2024/02/03 07:10:22;;;;;;;2.70;0.90;;;;;;;9.75;70.15;101448.34;10398210;28;20392;-86
2024/02/03 07:15:24;;;;;;;4.10;0.93;;;;;;;9.81;70.28;101457.69;10388410;28;20057;-87
2024/02/03 07:20:28;;;;;;;1.67;0.75;;;;;;;9.81;70.00;101458.53;10383731;28;20677;-87
2024/02/03 07:25:29;;;;;;;1.30;0.73;;;;;;;9.83;70.03;101442.28;10392626;28;20087;-89
2024/02/03 07:30:31;;;;;;;2.33;0.63;;;;;;;9.84;70.46;101441.28;10394720;28;20041;-91
2024/02/03 07:40:46;;;;;;;2.10;0.70;;;;;;;9.92;70.06;101442.25;10348039;28;20042;-85
2024/02/03 07:45:47;;;;;;;1.00;0.60;;;;;;;9.91;70.03;101443.25;10385116;28;20038;-92
2024/02/03 07:50:49;;;;;;;2.97;0.50;;;;;;;9.99;70.11;101447.91;10357599;23;20045;-88
2024/02/03 08:01:28;;;;;;;2.92;0.63;;;;;;;10.15;69.61;101433.88;2483480;23;20124;-87
2024/02/03 08:06:37;;;;;;;1.45;0.50;;;;;;;10.14;69.37;101432.16;10456400;28;20041;-92
2024/02/03 08:11:39;;;;;;;0.80;0.50;;;;;;;10.24;69.17;101427.59;10439067;23;20092;-65
2024/02/03 08:16:40;;;;;;;4.40;1.63;;;;;;;10.34;68.98;101430.28;10406483;28;20050;-64
2024/02/03 08:21:42;;;;;;;4.18;0.60;;;;;;;10.50;68.89;101427.81;10400161;28;20069;-65
2024/02/03 08:26:43;;;;;;;1.13;0.57;;;;;;;10.60;68.72;101432.28;10402364;28;20053;-65
2024/02/03 08:31:45;;;;;;;1.05;0.50;;;;;;;10.59;68.38;101427.91;10386252;28;20092;-66
2024/02/03 08:36:46;;;;;;;1.08;0.50;;;;;;;10.68;68.11;101427.00;10409320;28;20064;-65
2024/02/03 08:41:48;;;;;;;0.60;0.40;;;;;;;10.77;68.20;101420.72;10412239;28;20049;-65
2024/02/03 08:46:50;;;;;;;0.93;0.47;;;;;;;10.95;67.48;101403.78;10408627;28;20049;-66
2024/02/03 08:51:51;;;;;;;5.50;1.75;;;;;;;11.00;67.64;101410.38;10405294;28;20049;-65
2024/02/03 08:56:53;;;;;;;0.40;0.20;;;;;;;11.01;67.80;101411.22;10415407;28;20053;-66
2024/02/03 09:01:54;;;;;;;1.13;0.30;;;;;;;10.97;67.85;101410.69;10414069;28;20056;-65
2024/02/03 09:06:56;;;;;;;0.63;0.28;;;;;;;11.08;67.24;101402.41;10411943;28;20558;-66
2024/02/03 09:11:57;;;;;;;0.40;0.20;;;;;;;11.10;67.21;101399.56;10402682;28;20415;-65
2024/02/03 09:16:58;;;;;;;0.30;0.20;;;;;;;11.09;67.28;101411.31;10403474;28;20045;-65
2024/02/03 09:22:00;;;;;;;0.60;0.20;;;;;;;11.11;66.93;101406.63;10400533;28;20137;-67
2024/02/03 09:27:02;;;;;;;0.43;0.25;;;;;;;11.21;66.85;101403.84;10399312;28;20998;-67
2024/02/03 09:32:04;;;;;;;0.52;0.20;;;;;;;11.25;66.58;101397.16;10401731;28;20133;-67
2024/02/03 09:37:05;;;;;;;1.02;0.40;;;;;;;11.32;66.51;101399.06;10405315;28;20064;-67
2024/02/03 09:42:09;;;;;;;0.30;0.20;;;;;;;11.44;66.25;101401.53;10400231;28;20053;-67
2024/02/03 09:47:15;;;;;;;0.52;0.13;;;;;;;11.54;66.53;101413.06;10399521;28;20076;-67
2024/02/03 09:52:17;;;;;;;0.82;0.28;;;;;;;11.60;65.97;101416.97;10397631;28;20061;-67
2024/02/03 09:57:19;;;;;;;0.38;0.20;;;;;;;11.75;66.07;101426.19;10396296;28;20428;-67
2024/02/03 10:02:20;;;;;;;0.25;0.20;;;;;;;11.74;65.89;101431.72;10403220;28;20155;-67
2024/02/03 10:07:22;;;;;;;0.63;0.20;;;;;;;11.71;65.87;101427.50;10401300;28;20057;-67
2024/02/03 10:12:23;;;;;;;0.52;0.20;;;;;;;11.82;65.72;101423.69;10432202;28;20071;-67
2024/02/03 10:17:25;;;;;;;1.55;0.30;;;;;;;11.93;65.49;101434.25;10444332;28;20052;-67
2024/02/03 10:22:27;;;;;;;0.65;0.40;;;;;;;12.03;65.63;101439.56;10446693;28;20566;-67
2024/02/03 10:27:28;;;;;;;0.98;0.40;;;;;;;12.25;64.79;101424.69;10445624;28;20104;-67
2024/02/03 10:32:30;;;;;;;0.88;0.40;;;;;;;12.39;64.51;101410.59;10476515;23;20136;-87
2024/02/03 10:37:31;;;;;;;0.50;0.43;;;;;;;12.49;64.57;101410.47;10451637;28;20048;-87
2024/02/03 10:42:39;;;;;;;0.40;0.20;;;;;;;12.70;64.28;101418.13;10455765;28;20103;-87
2024/02/03 10:47:43;;;;;;;0.40;0.20;;;;;;;12.75;64.00;101423.88;10456181;28;20037;-87
2024/02/03 10:52:49;;;;;;;1.63;0.20;;;;;;;12.93;63.49;101422.91;10455647;28;20091;-87
2024/02/03 10:57:52;;;;;;;0.28;0.20;;;;;;;13.07;63.28;101412.31;10456626;28;20107;-88
2024/02/03 11:02:59;;;;;;;0.88;0.20;;;;;;;13.15;63.03;101416.91;10457145;28;20057;-87
2024/02/03 11:08:09;;;;;;;0.30;0.13;;;;;;;13.39;62.75;101413.41;10465732;28;20602;-87
2024/02/03 11:13:22;;;;;;;2.35;0.10;;;;;;;13.43;62.60;101419.31;10476062;28;20052;-87
2024/02/03 11:18:27;;;;;;;0.30;0.20;;;;;;;13.76;62.08;101416.59;10452127;28;20539;-87
2024/02/03 11:23:30;;;;;;;0.20;0.20;;;;;;;13.78;61.95;101396.47;10452067;28;20079;-88
2024/02/03 11:28:33;;;;;;;0.57;0.40;;;;;;;14.05;61.24;101395.25;10498553;28;20049;-88
2024/02/03 11:33:43;;;;;;;0.22;0.17;;;;;;;14.05;60.81;101392.53;10447312;28;20061;-88
2024/02/03 11:38:48;;;;;;;0.32;0.20;;;;;;;14.22;60.53;101396.03;10425714;28;20072;-88
2024/02/03 11:43:50;;;;;;;0.60;0.20;;;;;;;14.06;60.59;101407.75;10426256;28;20045;-88
2024/02/03 11:48:52;;;;;;;0.43;0.15;;;;;;;13.95;60.67;101401.88;10432223;28;20060;-88
2024/02/03 11:54:03;;;;;;;0.40;0.40;;;;;;;13.86;60.93;101399.19;10447536;28;20060;-88
2024/02/03 11:59:11;;;;;;;1.52;0.20;;;;;;;13.77;60.77;101397.50;10453332;28;20055;-89
2024/02/03 12:04:13;;;;;;;0.47;0.20;;;;;;;13.77;60.87;101385.84;10446619;28;20048;-89
2024/02/03 12:09:18;;;;;;;0.10;0.10;;;;;;;13.86;60.46;101382.09;10437056;28;20053;-89
2024/02/03 12:14:21;;;;;;;2.55;0.30;;;;;;;13.86;60.18;101372.16;10433219;28;20049;-89
2024/02/03 12:19:23;;;;;;;0.25;0.00;;;;;;;13.78;60.41;101371.31;10457019;28;20049;-88
2024/02/03 12:24:25;;;;;;;0.38;0.10;;;;;;;13.93;60.23;101369.59;10425366;28;20060;-88
2024/02/03 12:29:28;;;;;;;0.80;0.20;;;;;;;13.92;59.97;101354.41;10437378;28;20057;-88
2024/02/03 12:34:29;;;;;;;0.90;0.20;;;;;;;13.90;60.06;101348.31;10467042;28;20029;-88
2024/02/03 12:39:32;;;;;;;0.28;0.20;;;;;;;13.90;60.02;101342.91;10477550;28;20118;-88
2024/02/03 12:44:34;;;;;;;2.67;0.20;;;;;;;13.78;60.38;101331.59;10462024;28;20060;-88
2024/02/03 12:49:38;;;;;;;0.38;0.20;;;;;;;13.72;60.22;101326.06;10465689;28;20068;-88
2024/02/03 12:54:40;;;;;;;0.10;0.10;;;;;;;13.66;60.27;101336.56;10463717;28;20048;-88
2024/02/03 12:59:42;;;;;;;0.20;0.10;;;;;;;13.59;60.47;101342.81;10448130;28;20057;-88
2024/02/03 13:04:44;;;;;;;0.20;0.20;;;;;;;13.56;60.47;101341.28;10481506;28;20057;-88
2024/02/03 13:09:46;;;;;;;0.50;0.10;;;;;;;13.59;60.26;101351.75;10458475;28;20051;-88
2024/02/03 13:14:47;;;;;;;0.10;0.10;;;;;;;13.72;59.86;101342.28;10466778;28;20048;-88
2024/02/03 13:19:50;;;;;;;0.25;0.10;;;;;;;13.79;60.17;101324.38;10471858;28;20054;-88
2024/02/03 13:24:52;;;;;;;0.55;0.20;;;;;;;14.00;59.73;101315.66;10442867;28;20112;-88
2024/02/03 13:29:54;;;;;;;0.10;0.00;;;;;;;14.09;59.37;101304.66;10490831;28;20045;-88
2024/02/03 13:34:56;;;;;;;0.10;0.00;;;;;;;14.18;59.29;101312.72;10467430;28;20053;-89
2024/02/03 13:39:58;;;;;;;0.00;0.00;;;;;;;14.19;59.00;101307.13;10430845;28;20057;-89
2024/02/03 13:44:59;;;;;;;0.15;0.10;;;;;;;14.40;58.83;101303.84;10436019;28;20403;-88
2024/02/03 13:50:01;;;;;;;0.10;0.00;;;;;;;14.53;58.44;101302.41;10411293;28;20450;-88
2024/02/03 13:55:04;;;;;;;0.22;0.08;;;;;;;14.72;58.08;101301.97;10407817;28;20055;-87
2024/02/03 14:00:07;;;;;;;0.10;0.00;;;;;;;14.80;57.76;101298.38;10408605;28;20067;-88
2024/02/03 14:05:11;;;;;;;0.32;0.08;;;;;;;14.76;58.11;101297.03;10399266;28;20073;-88
2024/02/03 14:10:13;;;;;;;0.40;0.08;;;;;;;14.56;58.39;101294.81;10400506;28;20049;-88
2024/02/03 14:15:15;;;;;;;2.00;0.10;;;;;;;14.65;57.84;101288.34;10405561;28;20041;-88
2024/02/03 14:20:17;;;;;;;0.88;0.10;;;;;;;14.52;58.49;101301.56;10400766;28;20073;-88
2024/02/03 14:25:38;;;;;;;0.38;0.38;;;;;;;14.41;58.27;101291.97;10388964;28;20053;-90
2024/02/03 14:30:47;;;;;;;0.20;0.10;;;;;;;14.26;58.52;101302.72;10427957;28;20050;-89
2024/02/03 14:35:52;;;;;;;0.32;0.00;;;;;;;14.33;58.54;101289.31;10448093;28;20053;-89
2024/02/03 14:40:54;;;;;;;0.85;0.10;;;;;;;14.26;58.30;101269.44;10479871;28;20049;-88
2024/02/03 14:45:56;;;;;;;0.00;0.00;;;;;;;14.01;58.89;101301.16;10502902;28;20053;-88
2024/02/03 14:50:58;;;;;;;0.08;0.05;;;;;;;13.83;59.28;101286.00;10484432;28;20060;-89
2024/02/03 14:56:00;;;;;;;0.00;0.00;;;;;;;13.82;59.34;101294.28;10506213;28;20049;-88
2024/02/03 15:01:02;;;;;;;0.30;0.00;;;;;;;13.74;59.34;101291.59;10513295;28;20056;-88
2024/02/03 15:06:04;;;;;;;0.20;0.13;;;;;;;13.57;59.71;101283.56;10501630;28;20053;-88
2024/02/03 15:11:06;;;;;;;0.38;0.28;;;;;;;13.41;59.95;101260.13;10462972;28;20047;-89
2024/02/03 15:16:08;;;;;;;1.10;0.10;;;;;;;13.35;60.25;101262.66;10461688;28;20076;-89
2024/02/03 15:21:10;;;;;;;0.03;0.03;;;;;;;13.32;60.10;101279.22;10464236;28;20059;-89
2024/02/03 15:26:11;;;;;;;0.30;0.03;;;;;;;13.21;60.72;101274.97;10471788;28;20044;-88
2024/02/03 15:31:13;;;;;;;0.10;0.10;;;;;;;13.15;61.08;101286.44;10484884;28;20044;-89
2024/02/03 15:36:16;;;;;;;0.10;0.08;;;;;;;13.04;61.18;101288.47;10470862;28;20045;-89
2024/02/03 15:41:18;;;;;;;0.28;0.10;;;;;;;13.04;61.31;101282.25;10466966;28;20044;-89
2024/02/03 15:46:19;;;;;;;0.10;0.10;;;;;;;12.98;61.46;101288.31;10460533;28;20052;-88
2024/02/03 15:51:39;;;;;;;0.10;0.10;;;;;;;12.90;61.35;101275.66;10459796;28;20045;-89
2024/02/03 15:56:46;;;;;;;1.65;0.20;;;;;;;12.79;62.05;101279.53;10467846;28;20044;-89
2024/02/03 16:01:51;;;;;;;0.40;0.20;;;;;;;12.80;62.12;101289.31;10457867;28;20503;-87
2024/02/03 16:06:54;;;;;;;0.20;0.20;;;;;;;12.79;62.37;101286.78;10456338;28;20083;-89
2024/02/03 16:12:04;;;;;;;0.20;0.15;;;;;;;12.74;62.49;101292.69;10455898;28;20053;-88
2024/02/03 16:17:06;;;;;;;0.55;0.22;;;;;;;12.75;62.50;101294.38;10473247;28;20051;-88
2024/02/03 16:22:08;;;;;;;0.60;0.20;;;;;;;12.73;62.30;101296.38;10460801;28;20053;-87
2024/02/03 16:27:10;;;;;;;0.50;0.20;;;;;;;12.66;62.38;101312.41;10461976;28;20048;-87
2024/02/03 16:32:12;;;;;;;0.40;0.17;;;;;;;12.58;62.60;101303.44;10459326;28;20105;-87
2024/02/03 16:37:13;;;;;;;1.00;0.30;;;;;;;12.62;62.43;101308.34;10457241;28;20053;-87
2024/02/03 16:42:15;;;;;;;2.10;0.40;;;;;;;12.56;62.76;101310.84;10456498;28;20063;-87
2024/02/03 16:47:17;;;;;;;0.47;0.20;;;;;;;12.54;62.88;101313.72;10462104;28;20499;-87
2024/02/03 16:52:18;;;;;;;0.45;0.10;;;;;;;12.55;62.67;101309.19;10449544;28;20036;-87
2024/02/03 16:57:29;;;;;;;0.30;0.20;;;;;;;12.45;63.28;101306.63;10454637;28;20052;-87
2024/02/03 17:02:32;;;;;;;0.60;0.20;;;;;;;12.46;63.35;101311.84;10468974;28;20052;-87
2024/02/03 17:07:34;;;;;;;0.52;0.20;;;;;;;12.41;63.36;101292.63;10454633;28;20495;-87
2024/02/03 17:12:37;;;;;;;0.30;0.20;;;;;;;12.37;63.44;101285.88;10460208;28;20419;-87
2024/02/03 17:22:48;;;;;;;1.00;0.30;;;;;;;12.31;64.15;101281.13;10422504;28;20064;-61
2024/02/03 17:27:49;;;;;;;1.00;0.25;;;;;;;12.33;64.31;101289.91;10419543;28;20128;-62
2024/02/03 17:32:51;;;;;;;0.52;0.30;;;;;;;12.36;64.17;101300.38;10419046;28;20155;-61
2024/02/03 17:37:52;;;;;;;0.68;0.20;;;;;;;12.34;64.47;101310.44;10425139;28;20084;-61
2024/02/03 17:42:54;;;;;;;1.40;0.30;;;;;;;12.37;64.19;101312.00;10417851;28;20041;-62
2024/02/03 17:47:56;;;;;;;0.52;0.38;;;;;;;12.34;64.61;101310.44;10423917;28;20585;-61
2024/02/03 17:52:57;;;;;;;0.63;0.30;;;;;;;12.31;64.35;101302.72;10419224;28;20136;-61
2024/02/03 17:57:59;;;;;;;0.60;0.30;;;;;;;12.23;64.94;101310.78;10420948;28;20060;-60
2024/02/03 18:03:00;;;;;;;0.93;0.82;;;;;;;12.16;65.27;101301.63;10424781;28;20049;-61
2024/02/03 18:08:02;;;;;;;0.65;0.30;;;;;;;12.16;65.28;101302.47;10403316;28;20044;-61
2024/02/03 18:13:08;;;;;;;0.50;0.30;;;;;;;11.99;66.09;101298.88;10418882;28;20416;-60
2024/02/03 18:18:10;;;;;;;0.67;0.30;;;;;;;12.07;65.68;101307.00;10410908;28;20120;-60
2024/02/03 18:23:12;;;;;;;0.75;0.32;;;;;;;12.08;66.29;101311.41;10407566;28;20056;-62
2024/02/03 18:28:14;;;;;;;1.73;0.52;;;;;;;12.09;66.30;101312.25;10405887;28;20057;-60
2024/02/03 18:33:16;;;;;;;0.90;0.40;;;;;;;12.10;66.03;101317.47;10401656;28;20075;-60
2024/02/03 18:38:18;;;;;;;3.38;0.50;;;;;;;12.13;66.33;101321.69;10409071;28;20092;-60
2024/02/03 18:43:19;;;;;;;0.73;0.45;;;;;;;12.15;66.06;101318.84;10410911;28;20060;-61
2024/02/03 18:48:21;;;;;;;0.47;0.30;;;;;;;12.01;66.78;101310.34;10390032;28;20077;-62
2024/02/03 18:53:23;;;;;;;2.15;0.80;;;;;;;12.03;67.34;101323.66;10399729;28;20084;-62
2024/02/03 18:58:25;;;;;;;1.65;0.40;;;;;;;11.96;67.22;101312.66;10405622;28;20539;-62
2024/02/03 19:03:28;;;;;;;0.65;0.40;;;;;;;11.89;67.75;101300.88;10406676;28;20102;-62
2024/02/03 19:08:32;;;;;;;1.77;0.30;;;;;;;11.86;68.01;101309.22;10413759;28;20095;-62
2024/02/03 19:13:34;;;;;;;0.90;0.47;;;;;;;11.79;68.28;101303.66;10415377;28;20554;-62
2024/02/03 19:18:35;;;;;;;2.20;0.40;;;;;;;11.78;68.45;101284.94;10395957;28;20053;-62
2024/02/03 19:23:38;;;;;;;0.70;0.40;;;;;;;11.87;68.28;101284.00;10418984;28;20057;-62
2024/02/03 19:28:40;;;;;;;1.45;0.45;;;;;;;11.91;68.15;101277.31;10419106;28;20057;-62
2024/02/03 19:33:42;;;;;;;0.47;0.40;;;;;;;11.98;68.31;101299.88;10400068;28;20049;-62
2024/02/03 19:38:43;;;;;;;1.50;0.40;;;;;;;11.99;68.33;101312.38;10410272;28;20081;-62
2024/02/03 19:43:45;;;;;;;0.93;0.40;;;;;;;12.12;68.24;101309.19;10413350;28;20083;-62
2024/02/03 19:48:46;;;;;;;1.60;0.50;;;;;;;12.17;68.42;101300.66;10402222;28;20073;-62
2024/02/03 19:53:48;;;;;;;0.40;0.30;;;;;;;12.18;68.24;101295.06;10409727;28;20057;-63
2024/02/03 19:58:50;;;;;;;0.68;0.30;;;;;;;12.16;68.12;101289.00;10413339;28;20128;-63
2024/02/03 20:03:51;;;;;;;0.47;0.30;;;;;;;12.20;68.07;101300.31;10416156;28;20559;-63
2024/02/03 20:08:53;;;;;;;0.50;0.30;;;;;;;12.22;68.16;101309.06;10407298;28;20127;-63
2024/02/03 20:13:54;;;;;;;2.67;0.30;;;;;;;12.26;67.75;101315.81;10402398;28;20148;-63
2024/02/03 20:18:56;;;;;;;0.47;0.20;;;;;;;12.20;67.59;101322.69;10406897;28;20053;-66
2024/02/03 20:23:57;;;;;;;1.75;0.30;;;;;;;12.25;67.46;101311.44;10412931;28;20112;-64
2024/02/03 20:28:59;;;;;;;0.85;0.63;;;;;;;12.28;67.69;101322.75;10414715;28;20047;-63
2024/02/03 20:34:02;;;;;;;2.60;0.70;;;;;;;12.22;67.76;101314.47;10411810;28;20041;-63
2024/02/03 20:39:04;;;;;;;0.82;0.32;;;;;;;12.18;67.94;101342.75;10411855;28;20068;-64
2024/02/03 20:44:06;;;;;;;0.52;0.40;;;;;;;12.16;68.00;101333.97;10411762;28;20495;-64
2024/02/03 20:49:07;;;;;;;3.17;0.60;;;;;;;12.08;68.33;101332.09;10413868;28;20532;-63
2024/02/03 20:54:09;;;;;;;1.73;0.50;;;;;;;12.02;68.52;101316.56;10392717;28;20050;-64
2024/02/03 20:59:11;;;;;;;0.50;0.32;;;;;;;12.00;68.38;101322.13;10395140;28;20100;-63
2024/02/03 21:04:12;;;;;;;1.92;0.40;;;;;;;11.91;68.67;101306.94;10411333;28;20110;-63
2024/02/03 21:09:14;;;;;;;0.70;0.40;;;;;;;11.90;69.12;101305.22;10403891;28;20053;-64
2024/02/03 21:14:16;;;;;;;0.75;0.43;;;;;;;11.89;68.96;101312.47;10411007;28;20045;-63
2024/02/03 21:19:17;;;;;;;1.15;0.40;;;;;;;11.83;69.39;101293.41;10401231;28;20064;-65
2024/02/03 21:24:19;;;;;;;0.73;0.30;;;;;;;11.81;69.25;101293.56;10410247;28;20337;-65
2024/02/03 21:29:21;;;;;;;2.35;0.52;;;;;;;11.77;69.43;101310.19;10410113;28;20053;-63
2024/02/03 21:34:23;;;;;;;1.10;0.43;;;;;;;11.69;69.50;101300.22;10414141;28;20077;-65
2024/02/03 21:39:25;;;;;;;1.55;0.40;;;;;;;11.67;70.04;101316.53;10404335;28;20045;-63
2024/02/03 21:44:26;;;;;;;1.27;0.30;;;;;;;11.72;69.53;101310.66;10403468;28;20497;-64
2024/02/03 21:49:28;;;;;;;0.77;0.30;;;;;;;11.79;69.08;101325.19;10405956;28;20057;-62
2024/02/03 21:54:29;;;;;;;1.00;0.40;;;;;;;11.84;69.14;101316.63;10416096;28;20057;-64
2024/02/03 21:59:31;;;;;;;0.93;0.57;;;;;;;11.84;69.43;101306.69;10405781;28;20080;-63
2024/02/03 22:04:32;;;;;;;0.95;0.25;;;;;;;11.94;69.14;101305.75;10414726;28;20061;-63
2024/02/03 22:09:34;;;;;;;2.35;0.40;;;;;;;11.95;68.84;101308.31;10397121;28;20046;-63
2024/02/03 22:14:37;;;;;;;2.22;0.30;;;;;;;12.09;68.66;101304.16;10412407;28;20077;-61
2024/02/03 22:19:38;;;;;;;2.60;0.40;;;;;;;12.06;68.36;101301.78;10397524;28;20076;-61
2024/02/03 22:24:40;;;;;;;0.32;0.20;;;;;;;12.09;68.51;101301.47;10403501;28;20132;-61
2024/02/03 22:29:42;;;;;;;0.40;0.20;;;;;;;12.10;68.66;101306.69;10404988;28;20103;-61
2024/02/03 22:34:44;;;;;;;0.20;0.20;;;;;;;12.10;68.03;101293.22;10408551;28;20049;-61
2024/02/03 22:39:47;;;;;;;0.60;0.30;;;;;;;12.12;68.17;101281.41;10403545;28;20594;-61
2024/02/03 22:44:49;;;;;;;0.17;0.13;;;;;;;12.15;67.90;101281.09;10411365;28;20052;-60
2024/02/03 22:49:50;;;;;;;1.17;0.20;;;;;;;12.11;67.97;101280.56;10393252;28;20420;-61
2024/02/03 22:54:52;;;;;;;1.15;0.32;;;;;;;12.10;68.43;101263.56;10401122;28;20504;-61
2024/02/03 22:59:53;;;;;;;1.35;0.30;;;;;;;12.05;68.05;101273.97;10407181;28;20053;-61
2024/02/03 23:04:55;;;;;;;1.27;0.28;;;;;;;12.03;68.33;101272.47;10414349;28;20057;-61
2024/02/03 23:09:56;;;;;;;2.05;0.20;;;;;;;11.99;68.16;101261.16;10417207;28;20699;-61
2024/02/03 23:14:58;;;;;;;1.75;0.50;;;;;;;11.98;68.04;101248.69;10414792;28;20053;-61
2024/02/03 23:19:59;;;;;;;0.68;0.30;;;;;;;11.97;68.38;101241.63;10411105;28;20281;-61
2024/02/03 23:25:01;;;;;;;0.65;0.20;;;;;;;12.04;68.10;101242.63;10394418;28;20065;-61
2024/02/03 23:30:10;;;;;;;0.20;0.17;;;;;;;12.00;67.63;101253.91;10416300;28;20061;-62